Time;durP1;ratioP1;P1;durP2;ratioP2;P2;SDS_P1;SDS_P2;PMS_P1;PMS_P2;Temp;Humidity;BMP_temperature;BMP_pressure;BME280_temperature;BME280_humidity;BME280_pressure;Samples;Min_cycle;Max_cycle;Signal;HPM_P1;HPM_P2
2022/11/12 00:01:10;;;;;;;10.60;6.93;;;;;;;;;;4924994;29;20627;-55
2022/11/12 00:03:37;;;;;;;6.90;5.53;;;;;;;;;;4929505;28;20233;-55
2022/11/12 00:06:03;;;;;;;5.13;4.67;;;;;;;;;;4929649;29;20193;-54
2022/11/12 00:08:29;;;;;;;6.00;5.17;;;;;;;;;;4921113;29;20217;-54
2022/11/12 00:10:55;;;;;;;5.17;4.67;;;;;;;;;;4925087;29;20641;-55
2022/11/12 00:13:21;;;;;;;5.27;4.53;;;;;;;;;;4928068;29;20334;-54
2022/11/12 00:15:47;;;;;;;7.53;5.73;;;;;;;;;;4926180;29;20554;-55
2022/11/12 00:18:13;;;;;;;6.40;5.27;;;;;;;;;;4927894;29;20268;-55
2022/11/12 00:20:40;;;;;;;5.90;5.30;;;;;;;;;;4928487;29;20181;-55
2022/11/12 00:23:06;;;;;;;5.53;5.00;;;;;;;;;;4928333;29;20256;-55
2022/11/12 00:25:32;;;;;;;6.10;5.07;;;;;;;;;;4926174;29;20182;-55
2022/11/12 00:28:05;;;;;;;5.87;5.17;;;;;;;;;;4922142;29;20383;-55
2022/11/12 00:30:31;;;;;;;5.10;4.70;;;;;;;;;;4924386;29;20556;-54
2022/11/12 00:32:57;;;;;;;5.47;4.97;;;;;;;;;;4927389;29;20180;-55
2022/11/12 00:35:23;;;;;;;7.67;5.30;;;;;;;;;;4908535;29;20609;-55
2022/11/12 00:37:53;;;;;;;5.73;4.87;;;;;;;;;;4892915;29;20214;-54
2022/11/12 00:40:19;;;;;;;5.87;5.27;;;;;;;;;;4924701;29;20203;-54
2022/11/12 00:42:45;;;;;;;5.60;4.73;;;;;;;;;;4925853;29;20185;-55
2022/11/12 00:45:11;;;;;;;5.37;4.83;;;;;;;;;;4928794;29;20200;-54
2022/11/12 00:47:37;;;;;;;5.50;4.97;;;;;;;;;;4907809;29;20680;-55
2022/11/12 00:50:03;;;;;;;5.93;5.27;;;;;;;;;;4927296;29;20197;-54
2022/11/12 00:52:29;;;;;;;5.23;4.73;;;;;;;;;;4928400;29;20731;-54
2022/11/12 00:54:55;;;;;;;6.90;5.13;;;;;;;;;;4927447;29;20268;-55
2022/11/12 00:57:21;;;;;;;6.73;4.77;;;;;;;;;;4926863;29;20260;-61
2022/11/12 00:59:50;;;;;;;6.20;4.53;;;;;;;;;;4920496;29;20185;-54
2022/11/12 01:02:16;;;;;;;5.40;4.90;;;;;;;;;;4918101;28;20232;-57
2022/11/12 01:04:42;;;;;;;5.70;4.90;;;;;;;;;;4921654;29;20722;-57
2022/11/12 01:07:08;;;;;;;5.67;4.77;;;;;;;;;;4918471;29;20185;-54
2022/11/12 01:09:34;;;;;;;6.67;5.17;;;;;;;;;;4920267;29;20229;-54
2022/11/12 01:12:00;;;;;;;7.43;5.63;;;;;;;;;;4920067;29;20169;-55
2022/11/12 01:14:26;;;;;;;7.20;5.00;;;;;;;;;;4913104;29;20181;-54
2022/11/12 01:16:52;;;;;;;4.77;4.33;;;;;;;;;;4919361;29;20177;-55
2022/11/12 01:19:18;;;;;;;6.47;4.93;;;;;;;;;;4923667;29;20189;-54
2022/11/12 01:21:45;;;;;;;6.43;5.40;;;;;;;;;;4920392;29;20583;-55
2022/11/12 01:24:11;;;;;;;6.97;5.03;;;;;;;;;;4922039;29;20181;-55
2022/11/12 01:26:38;;;;;;;8.07;5.60;;;;;;;;;;4919571;29;20690;-55
2022/11/12 01:29:04;;;;;;;7.27;5.57;;;;;;;;;;4920019;29;20803;-55
2022/11/12 01:31:35;;;;;;;8.33;5.37;;;;;;;;;;4917165;29;20213;-54
2022/11/12 01:34:03;;;;;;;5.63;4.93;;;;;;;;;;4923966;29;20208;-54
2022/11/12 01:36:31;;;;;;;7.20;5.40;;;;;;;;;;4927710;29;20527;-55
2022/11/12 01:38:57;;;;;;;6.17;5.00;;;;;;;;;;4925279;29;20185;-53
2022/11/12 01:41:30;;;;;;;6.00;5.40;;;;;;;;;;4921736;29;20189;-54
2022/11/12 01:44:12;;;;;;;5.23;4.73;;;;;;;;;;4926372;29;20181;-54
2022/11/12 01:46:53;;;;;;;5.03;4.53;;;;;;;;;;4925757;29;20505;-55
2022/11/12 01:49:23;;;;;;;5.60;4.93;;;;;;;;;;4927509;29;20283;-54
2022/11/12 01:51:51;;;;;;;6.17;5.10;;;;;;;;;;4914385;29;20170;-54
2022/11/12 01:54:19;;;;;;;6.17;4.97;;;;;;;;;;4925779;29;20197;-54
2022/11/12 01:56:46;;;;;;;5.47;4.83;;;;;;;;;;4897528;29;20563;-55
2022/11/12 01:59:24;;;;;;;6.77;4.33;;;;;;;;;;4923085;29;20656;-55
2022/11/12 02:01:50;;;;;;;4.53;4.00;;;;;;;;;;4926236;29;20192;-53
2022/11/12 02:04:16;;;;;;;6.13;4.87;;;;;;;;;;4928877;28;20280;-55
2022/11/12 02:06:43;;;;;;;6.47;4.97;;;;;;;;;;4927286;29;20173;-55
2022/11/12 02:09:09;;;;;;;5.07;4.57;;;;;;;;;;4925135;29;20683;-54
2022/11/12 02:11:35;;;;;;;5.90;4.43;;;;;;;;;;4927353;29;20174;-54
2022/11/12 02:14:01;;;;;;;5.37;4.30;;;;;;;;;;4914354;29;20170;-54
2022/11/12 02:16:32;;;;;;;4.40;4.00;;;;;;;;;;4927482;29;20231;-54
2022/11/12 02:18:59;;;;;;;5.03;4.53;;;;;;;;;;4929774;29;20185;-55
2022/11/12 02:21:25;;;;;;;4.77;4.27;;;;;;;;;;4930972;29;20652;-54
2022/11/12 02:23:58;;;;;;;6.10;4.37;;;;;;;;;;4913261;29;20185;-54
2022/11/12 02:26:25;;;;;;;4.90;4.20;;;;;;;;;;4930018;29;20181;-54
2022/11/12 02:28:51;;;;;;;8.27;4.50;;;;;;;;;;4929430;29;20588;-55
2022/11/12 02:31:17;;;;;;;4.23;3.83;;;;;;;;;;4926052;29;20199;-55
2022/11/12 02:33:43;;;;;;;5.57;4.33;;;;;;;;;;4929630;29;20308;-54
2022/11/12 02:36:09;;;;;;;4.47;3.90;;;;;;;;;;4930871;29;20191;-55
2022/11/12 02:38:35;;;;;;;5.63;4.30;;;;;;;;;;4911347;29;20194;-55
2022/11/12 02:41:01;;;;;;;4.17;3.80;;;;;;;;;;4930592;29;20217;-54
2022/11/12 02:43:27;;;;;;;6.10;4.37;;;;;;;;;;4917595;29;20187;-55
2022/11/12 02:45:53;;;;;;;4.83;4.23;;;;;;;;;;4929627;29;20210;-54
2022/11/12 02:48:19;;;;;;;3.63;3.33;;;;;;;;;;4925384;29;20193;-54
2022/11/12 02:50:46;;;;;;;4.40;4.00;;;;;;;;;;4928893;29;20177;-55
2022/11/12 02:53:12;;;;;;;4.30;3.90;;;;;;;;;;4930229;29;20166;-55
2022/11/12 02:55:39;;;;;;;4.57;3.80;;;;;;;;;;4912669;29;20177;-55
2022/11/12 02:58:05;;;;;;;4.20;3.80;;;;;;;;;;4927580;29;20265;-54
2022/11/12 03:00:31;;;;;;;4.97;4.47;;;;;;;;;;4912136;29;20188;-55
2022/11/12 03:03:00;;;;;;;6.33;4.17;;;;;;;;;;4928739;28;20220;-54
2022/11/12 03:05:27;;;;;;;4.97;3.60;;;;;;;;;;4916732;29;20180;-54
2022/11/12 03:07:57;;;;;;;4.50;4.03;;;;;;;;;;4928417;29;20633;-54
2022/11/12 03:10:23;;;;;;;4.33;3.87;;;;;;;;;;4924457;29;20197;-55
2022/11/12 03:12:49;;;;;;;3.90;3.60;;;;;;;;;;4930123;29;20180;-54
2022/11/12 03:15:16;;;;;;;4.10;3.70;;;;;;;;;;4907879;29;20177;-54
2022/11/12 03:17:42;;;;;;;4.80;4.40;;;;;;;;;;4918497;29;20648;-55
2022/11/12 03:20:09;;;;;;;4.37;3.97;;;;;;;;;;4927728;29;21035;-54
2022/11/12 03:22:35;;;;;;;4.00;3.60;;;;;;;;;;4926628;29;20531;-54
2022/11/12 03:25:01;;;;;;;4.23;3.80;;;;;;;;;;4929303;29;20177;-54
2022/11/12 03:27:27;;;;;;;4.53;3.83;;;;;;;;;;4927629;29;20641;-55
2022/11/12 03:29:53;;;;;;;4.67;3.80;;;;;;;;;;4929163;29;20197;-54
2022/11/12 03:32:19;;;;;;;3.93;3.43;;;;;;;;;;4927930;29;20185;-55
2022/11/12 03:34:51;;;;;;;3.77;3.37;;;;;;;;;;4929832;29;20220;-54
2022/11/12 03:37:18;;;;;;;3.43;3.03;;;;;;;;;;4928556;29;20828;-55
2022/11/12 03:39:44;;;;;;;4.07;3.60;;;;;;;;;;4922095;29;20190;-55
2022/11/12 03:42:10;;;;;;;5.33;4.00;;;;;;;;;;4929473;29;20189;-54
2022/11/12 03:44:36;;;;;;;4.50;4.10;;;;;;;;;;4911580;29;20224;-54
2022/11/12 03:47:02;;;;;;;4.17;3.47;;;;;;;;;;4916887;29;20209;-55
2022/11/12 03:49:28;;;;;;;3.67;3.20;;;;;;;;;;4925390;29;20217;-55
2022/11/12 03:51:54;;;;;;;4.53;4.13;;;;;;;;;;4914215;29;20225;-55
2022/11/12 03:54:20;;;;;;;4.13;3.83;;;;;;;;;;4925004;29;20637;-55
2022/11/12 03:56:46;;;;;;;3.50;3.20;;;;;;;;;;4923859;29;20405;-54
2022/11/12 03:59:12;;;;;;;4.10;3.40;;;;;;;;;;4928394;29;20637;-55
2022/11/12 04:01:38;;;;;;;3.90;3.20;;;;;;;;;;4928265;29;20180;-54
2022/11/12 04:04:04;;;;;;;3.60;3.30;;;;;;;;;;4928683;28;20232;-55
2022/11/12 04:09:34;;;;;;;3.83;3.00;;;;;;;;;;4843251;29;20338;-54
2022/11/12 04:13:26;;;;;;;3.27;2.97;;;;;;;;;;4817047;29;20272;-54
2022/11/12 04:14:47;;;;;;;3.77;2.97;;;;;;;;;;4883635;29;20220;-54
2022/11/12 04:22:42;;;;;;;4.77;3.20;;;;;;;;;;4928424;29;20188;-55
2022/11/12 04:27:53;;;;;;;3.73;3.27;;;;;;;;;;4925682;29;20298;-55
2022/11/12 04:30:19;;;;;;;3.60;3.23;;;;;;;;;;4927154;29;20287;-54
2022/11/12 04:32:57;;;;;;;3.67;3.30;;;;;;;;;;4925986;29;20439;-54
2022/11/12 04:35:24;;;;;;;2.87;2.67;;;;;;;;;;4908657;29;20648;-54
2022/11/12 04:37:50;;;;;;;5.03;3.40;;;;;;;;;;4916781;29;20204;-54
2022/11/12 04:45:50;;;;;;;2.90;2.60;;;;;;;;;;4910099;29;20341;-55
2022/11/12 04:48:17;;;;;;;4.30;2.97;;;;;;;;;;4915228;29;20200;-54
2022/11/12 04:50:53;;;;;;;4.37;3.10;;;;;;;;;;4927915;29;20240;-53
2022/11/12 04:53:19;;;;;;;3.20;2.80;;;;;;;;;;4926325;29;20264;-54
2022/11/12 04:55:51;;;;;;;4.17;2.73;;;;;;;;;;4927709;29;20181;-54
2022/11/12 04:58:18;;;;;;;3.40;3.10;;;;;;;;;;4923233;29;20185;-54
2022/11/12 05:00:44;;;;;;;4.60;4.30;;;;;;;;;;4924210;29;20181;-54
2022/11/12 05:03:10;;;;;;;5.57;5.17;;;;;;;;;;4916491;28;20232;-54
2022/11/12 05:05:36;;;;;;;8.43;2.77;;;;;;;;;;4927843;29;20656;-54
2022/11/12 05:08:02;;;;;;;3.43;3.00;;;;;;;;;;4926743;29;20211;-53
2022/11/12 05:10:31;;;;;;;3.07;2.87;;;;;;;;;;4898339;29;20213;-54
2022/11/12 05:12:58;;;;;;;2.83;2.53;;;;;;;;;;4927662;29;20193;-54
2022/11/12 05:15:24;;;;;;;3.33;2.93;;;;;;;;;;4926062;29;20264;-54
2022/11/12 05:17:50;;;;;;;2.60;2.40;;;;;;;;;;4926376;29;20194;-54
2022/11/12 05:20:16;;;;;;;3.40;3.10;;;;;;;;;;4924616;29;20185;-54
2022/11/12 05:22:42;;;;;;;3.07;2.83;;;;;;;;;;4926173;29;20204;-54
2022/11/12 05:25:08;;;;;;;4.30;4.00;;;;;;;;;;4926803;29;20237;-55
2022/11/12 05:27:35;;;;;;;3.13;2.83;;;;;;;;;;4927694;29;20174;-54
2022/11/12 05:30:01;;;;;;;3.33;3.13;;;;;;;;;;4925504;29;20731;-55
2022/11/12 05:32:27;;;;;;;3.57;3.23;;;;;;;;;;4923920;29;20667;-54
2022/11/12 05:34:53;;;;;;;5.27;3.53;;;;;;;;;;4925827;29;20212;-54
2022/11/12 05:37:20;;;;;;;3.90;2.70;;;;;;;;;;4916251;29;20677;-55
2022/11/12 05:39:46;;;;;;;3.00;2.60;;;;;;;;;;4924052;29;20191;-54
2022/11/12 05:42:12;;;;;;;3.37;3.00;;;;;;;;;;4927556;29;20189;-55
2022/11/12 05:44:38;;;;;;;4.03;3.07;;;;;;;;;;4927303;29;20295;-53
2022/11/12 05:47:04;;;;;;;3.47;3.17;;;;;;;;;;4925504;29;20224;-54
2022/11/12 05:49:30;;;;;;;4.00;3.20;;;;;;;;;;4926135;29;20201;-54
2022/11/12 05:51:56;;;;;;;2.90;2.70;;;;;;;;;;4927152;29;20287;-55
2022/11/12 05:54:23;;;;;;;3.10;2.63;;;;;;;;;;4921711;29;20197;-55
2022/11/12 05:56:51;;;;;;;3.47;2.80;;;;;;;;;;4926661;29;20177;-54
2022/11/12 05:59:17;;;;;;;4.03;2.90;;;;;;;;;;4920901;29;20192;-54
2022/11/12 06:01:43;;;;;;;3.10;2.90;;;;;;;;;;4918781;29;20629;-54
2022/11/12 06:04:12;;;;;;;3.43;3.13;;;;;;;;;;4927800;28;20221;-54
2022/11/12 06:06:39;;;;;;;4.30;3.07;;;;;;;;;;4926691;29;20722;-53
2022/11/12 06:09:05;;;;;;;3.40;3.07;;;;;;;;;;4926159;29;22128;-54
2022/11/12 06:11:32;;;;;;;3.03;2.83;;;;;;;;;;4918664;29;20616;-54
2022/11/12 06:13:58;;;;;;;2.90;2.70;;;;;;;;;;4926567;29;20196;-53
2022/11/12 06:16:24;;;;;;;3.00;2.80;;;;;;;;;;4926034;29;20181;-54
2022/11/12 06:18:50;;;;;;;3.40;3.10;;;;;;;;;;4926765;29;20308;-54
2022/11/12 06:21:20;;;;;;;3.40;3.10;;;;;;;;;;4927094;29;20181;-54
2022/11/12 06:23:47;;;;;;;3.20;3.00;;;;;;;;;;4920301;29;20181;-54
2022/11/12 06:26:13;;;;;;;2.97;2.67;;;;;;;;;;4927438;29;20162;-54
2022/11/12 06:28:39;;;;;;;2.83;2.63;;;;;;;;;;4915666;29;20256;-54
2022/11/12 06:31:05;;;;;;;3.07;2.77;;;;;;;;;;4924069;29;20186;-54
2022/11/12 06:33:31;;;;;;;2.40;2.20;;;;;;;;;;4926880;29;20235;-54
2022/11/12 06:36:04;;;;;;;3.13;2.90;;;;;;;;;;4924891;29;20200;-53
2022/11/12 06:38:34;;;;;;;3.33;3.03;;;;;;;;;;4926555;29;20244;-54
2022/11/12 06:41:00;;;;;;;3.30;3.00;;;;;;;;;;4894999;29;20186;-53
2022/11/12 06:43:27;;;;;;;3.23;2.93;;;;;;;;;;4924039;29;20232;-52
2022/11/12 06:45:53;;;;;;;2.70;2.50;;;;;;;;;;4918672;29;20716;-53
2022/11/12 06:48:19;;;;;;;3.30;2.93;;;;;;;;;;4924796;29;20676;-52
2022/11/12 06:50:45;;;;;;;3.20;3.00;;;;;;;;;;4927124;29;20687;-52
2022/11/12 06:53:12;;;;;;;3.77;2.97;;;;;;;;;;4926603;29;20513;-52
2022/11/12 06:55:38;;;;;;;3.70;3.40;;;;;;;;;;4921257;29;20712;-52
2022/11/12 06:58:04;;;;;;;4.43;3.10;;;;;;;;;;4917472;29;20230;-53
2022/11/12 07:00:30;;;;;;;3.17;2.87;;;;;;;;;;4925737;29;20192;-52
2022/11/12 07:02:56;;;;;;;3.30;3.00;;;;;;;;;;4908451;28;20649;-52
2022/11/12 07:05:22;;;;;;;3.30;3.00;;;;;;;;;;4927502;29;20204;-52
2022/11/12 07:07:48;;;;;;;3.03;2.60;;;;;;;;;;4904963;29;20664;-52
2022/11/12 07:10:14;;;;;;;4.23;3.00;;;;;;;;;;4896329;29;20677;-52
2022/11/12 07:12:40;;;;;;;5.37;3.27;;;;;;;;;;4917623;29;20629;-52
2022/11/12 07:15:06;;;;;;;3.00;2.80;;;;;;;;;;4928632;29;20237;-52
2022/11/12 07:17:32;;;;;;;3.47;2.60;;;;;;;;;;4927142;29;20673;-52
2022/11/12 07:19:59;;;;;;;3.50;3.20;;;;;;;;;;4911577;29;20217;-52
2022/11/12 07:22:26;;;;;;;2.83;2.63;;;;;;;;;;4929068;29;20491;-53
2022/11/12 07:24:52;;;;;;;5.50;3.30;;;;;;;;;;4929149;29;20181;-51
2022/11/12 07:27:18;;;;;;;3.80;2.70;;;;;;;;;;4908285;29;20193;-52
2022/11/12 07:29:44;;;;;;;4.10;3.40;;;;;;;;;;4893745;29;20264;-52
2022/11/12 07:32:10;;;;;;;3.23;2.93;;;;;;;;;;4910843;29;20282;-52
2022/11/12 07:34:36;;;;;;;3.07;2.80;;;;;;;;;;4929046;29;20177;-51
2022/11/12 07:37:02;;;;;;;3.37;3.07;;;;;;;;;;4926416;29;21044;-53
2022/11/12 07:39:28;;;;;;;2.93;2.73;;;;;;;;;;4922030;29;20688;-53
2022/11/12 07:41:54;;;;;;;3.47;3.17;;;;;;;;;;4928579;29;20198;-53
2022/11/12 07:44:20;;;;;;;3.40;3.07;;;;;;;;;;4928419;29;20188;-53
2022/11/12 07:46:46;;;;;;;3.23;2.93;;;;;;;;;;4926130;29;20617;-53
2022/11/12 07:49:12;;;;;;;3.50;3.20;;;;;;;;;;4928102;29;20629;-53
2022/11/12 07:51:38;;;;;;;3.57;3.27;;;;;;;;;;4926260;29;20700;-53
2022/11/12 07:54:04;;;;;;;3.40;3.10;;;;;;;;;;4926943;29;20395;-53
2022/11/12 07:56:30;;;;;;;3.30;3.00;;;;;;;;;;4910834;29;20181;-53
2022/11/12 07:58:56;;;;;;;3.53;3.23;;;;;;;;;;4926294;29;20547;-53
2022/11/12 08:01:30;;;;;;;3.20;2.90;;;;;;;;;;4916544;29;20185;-53
2022/11/12 08:03:57;;;;;;;3.73;3.40;;;;;;;;;;4921441;28;20237;-53
2022/11/12 08:06:23;;;;;;;3.03;2.80;;;;;;;;;;4919924;29;20185;-53
2022/11/12 08:08:53;;;;;;;3.40;3.20;;;;;;;;;;4920575;29;20291;-53
2022/11/12 08:11:19;;;;;;;3.43;2.70;;;;;;;;;;4918490;29;20660;-53
2022/11/12 08:13:45;;;;;;;3.20;2.90;;;;;;;;;;4927977;29;20178;-53
2022/11/12 08:16:12;;;;;;;6.97;3.00;;;;;;;;;;4922622;29;20178;-53
2022/11/12 08:18:38;;;;;;;3.27;2.90;;;;;;;;;;4927669;29;20181;-53
2022/11/12 08:21:06;;;;;;;4.57;3.30;;;;;;;;;;4903853;29;20261;-53
2022/11/12 08:23:32;;;;;;;3.97;3.37;;;;;;;;;;4899608;29;20638;-53
2022/11/12 08:25:59;;;;;;;4.03;3.63;;;;;;;;;;4910553;29;20513;-53
2022/11/12 08:28:25;;;;;;;3.70;3.20;;;;;;;;;;4907799;29;20197;-53
2022/11/12 08:30:51;;;;;;;3.53;3.03;;;;;;;;;;4927960;29;20209;-53
2022/11/12 08:33:17;;;;;;;3.00;2.70;;;;;;;;;;4927073;29;20668;-52
2022/11/12 08:35:43;;;;;;;3.30;2.50;;;;;;;;;;4928739;29;20161;-54
2022/11/12 08:38:10;;;;;;;3.53;3.20;;;;;;;;;;4920637;29;20220;-53
2022/11/12 08:40:36;;;;;;;3.63;2.80;;;;;;;;;;4920902;29;20186;-53
2022/11/12 08:43:03;;;;;;;3.30;2.80;;;;;;;;;;4926647;29;20601;-53
2022/11/12 08:45:32;;;;;;;3.47;2.90;;;;;;;;;;4912966;29;20193;-53
2022/11/12 08:47:59;;;;;;;3.00;2.50;;;;;;;;;;4922367;29;20178;-53
2022/11/12 08:50:25;;;;;;;3.10;2.80;;;;;;;;;;4913974;29;20308;-52
2022/11/12 08:53:00;;;;;;;3.40;3.10;;;;;;;;;;4919473;29;20754;-52
2022/11/12 08:55:27;;;;;;;3.53;3.23;;;;;;;;;;4923404;29;20549;-51
2022/11/12 08:57:53;;;;;;;4.47;3.50;;;;;;;;;;4926092;29;20181;-51
2022/11/12 09:00:19;;;;;;;6.03;3.83;;;;;;;;;;4918092;29;20193;-52
2022/11/12 09:02:58;;;;;;;4.10;3.70;;;;;;;;;;4919967;28;20185;-52
2022/11/12 09:05:24;;;;;;;8.43;4.30;;;;;;;;;;4908628;29;20284;-51
2022/11/12 09:07:56;;;;;;;5.27;4.17;;;;;;;;;;4891334;29;20189;-52
2022/11/12 09:10:22;;;;;;;5.23;3.93;;;;;;;;;;4895561;29;20209;-53
2022/11/12 09:12:52;;;;;;;5.57;3.93;;;;;;;;;;4897028;29;20241;-52
2022/11/12 09:15:18;;;;;;;3.70;3.40;;;;;;;;;;4906601;29;20197;-52
2022/11/12 09:17:44;;;;;;;4.23;3.83;;;;;;;;;;4902629;29;20206;-52
2022/11/12 09:20:10;;;;;;;4.87;3.90;;;;;;;;;;4890586;29;20189;-51
2022/11/12 09:22:36;;;;;;;5.33;3.63;;;;;;;;;;4878095;29;20551;-52
2022/11/12 09:25:02;;;;;;;3.50;3.20;;;;;;;;;;4907557;29;20190;-52
2022/11/12 09:27:28;;;;;;;10.07;4.37;;;;;;;;;;4903591;29;20194;-52
2022/11/12 09:29:55;;;;;;;4.30;3.47;;;;;;;;;;4894239;29;20303;-52
2022/11/12 09:32:21;;;;;;;3.07;2.80;;;;;;;;;;4905785;29;20613;-52
2022/11/12 09:34:47;;;;;;;5.13;3.67;;;;;;;;;;4901279;29;20222;-51
2022/11/12 09:37:14;;;;;;;4.57;3.80;;;;;;;;;;4893708;29;20258;-52
2022/11/12 09:39:40;;;;;;;4.03;3.60;;;;;;;;;;4901238;29;20637;-51
2022/11/12 09:42:07;;;;;;;6.60;3.87;;;;;;;;;;4904455;29;20188;-52
2022/11/12 09:44:35;;;;;;;4.00;3.43;;;;;;;;;;4904319;29;20186;-53
2022/11/12 09:47:03;;;;;;;4.87;4.40;;;;;;;;;;4905299;29;20345;-52
2022/11/12 09:49:35;;;;;;;3.73;2.63;;;;;;;;;;4906106;29;20213;-53
2022/11/12 09:52:09;;;;;;;3.20;2.90;;;;;;;;;;4904223;29;20641;-52
2022/11/12 09:54:36;;;;;;;4.43;3.13;;;;;;;;;;4907392;29;20641;-52
2022/11/12 09:57:02;;;;;;;3.57;3.27;;;;;;;;;;4903166;29;20192;-53
2022/11/12 09:59:30;;;;;;;3.27;2.97;;;;;;;;;;4889868;29;20698;-53
2022/11/12 10:01:56;;;;;;;3.07;2.80;;;;;;;;;;4888371;29;20185;-53
2022/11/12 10:04:22;;;;;;;4.50;2.77;;;;;;;;;;4919163;28;20231;-53
2022/11/12 10:07:01;;;;;;;3.03;2.80;;;;;;;;;;4926996;29;20185;-53
2022/11/12 10:09:29;;;;;;;3.13;2.80;;;;;;;;;;4921404;29;20740;-53
2022/11/12 10:12:33;;;;;;;2.80;2.60;;;;;;;;;;4916913;29;20716;-53
2022/11/12 10:17:58;;;;;;;2.90;2.60;;;;;;;;;;4914379;29;20656;-53
2022/11/12 10:20:44;;;;;;;3.90;2.20;;;;;;;;;;4914256;29;20192;-52
2022/11/12 10:23:17;;;;;;;2.43;2.20;;;;;;;;;;4907466;29;20208;-52
2022/11/12 10:25:44;;;;;;;2.40;1.90;;;;;;;;;;4919246;29;20188;-52
2022/11/12 10:28:22;;;;;;;2.60;2.40;;;;;;;;;;4926296;29;20181;-52
2022/11/12 10:30:48;;;;;;;2.50;2.30;;;;;;;;;;4917285;29;20632;-53
2022/11/12 10:33:14;;;;;;;2.00;1.90;;;;;;;;;;4925672;29;20537;-53
2022/11/12 10:35:40;;;;;;;2.43;2.23;;;;;;;;;;4920644;29;20272;-52
2022/11/12 10:38:11;;;;;;;2.97;2.50;;;;;;;;;;4918355;29;20193;-52
2022/11/12 10:40:38;;;;;;;2.60;2.10;;;;;;;;;;4926180;29;20196;-51
2022/11/12 10:43:04;;;;;;;2.17;2.07;;;;;;;;;;4924969;29;20615;-52
2022/11/12 10:45:31;;;;;;;2.43;2.20;;;;;;;;;;4929581;29;20256;-52
2022/11/12 10:47:58;;;;;;;3.63;2.47;;;;;;;;;;4929451;29;20215;-52
2022/11/12 10:50:29;;;;;;;2.70;2.50;;;;;;;;;;4929945;29;20201;-53
2022/11/12 10:53:06;;;;;;;2.53;2.33;;;;;;;;;;4911388;29;20350;-52
2022/11/12 10:55:33;;;;;;;3.60;2.10;;;;;;;;;;4911891;29;20196;-53
2022/11/12 10:58:11;;;;;;;2.50;2.30;;;;;;;;;;4929021;29;20189;-53
2022/11/12 11:00:38;;;;;;;2.93;2.37;;;;;;;;;;4913278;29;20193;-52
2022/11/12 11:03:16;;;;;;;2.73;2.30;;;;;;;;;;4912203;28;20201;-52
2022/11/12 11:06:00;;;;;;;2.67;2.47;;;;;;;;;;4928895;29;20185;-52
2022/11/12 11:08:32;;;;;;;3.33;2.33;;;;;;;;;;4927809;29;20208;-52
2022/11/12 11:11:10;;;;;;;3.20;2.60;;;;;;;;;;4929476;29;20522;-52
2022/11/12 11:13:36;;;;;;;3.03;2.20;;;;;;;;;;4926761;29;20652;-51
2022/11/12 11:16:03;;;;;;;2.77;2.57;;;;;;;;;;4908108;29;20431;-51
2022/11/12 11:18:33;;;;;;;6.60;2.53;;;;;;;;;;4925991;29;20189;-52
2022/11/12 11:21:07;;;;;;;2.80;2.60;;;;;;;;;;4926368;29;20197;-51
2022/11/12 11:23:53;;;;;;;4.87;3.57;;;;;;;;;;4924219;29;20181;-53
2022/11/12 11:26:19;;;;;;;3.30;3.00;;;;;;;;;;4916290;29;20569;-52
2022/11/12 11:28:49;;;;;;;3.33;2.90;;;;;;;;;;4926083;29;20641;-52
2022/11/12 11:31:20;;;;;;;2.43;2.23;;;;;;;;;;4922113;29;20544;-53
2022/11/12 11:33:46;;;;;;;3.53;2.90;;;;;;;;;;4922214;29;20185;-53
2022/11/12 11:36:28;;;;;;;3.83;3.13;;;;;;;;;;4905575;29;20182;-53
2022/11/12 11:38:54;;;;;;;3.20;2.43;;;;;;;;;;4898941;29;20173;-53
2022/11/12 11:41:35;;;;;;;3.00;2.63;;;;;;;;;;4927296;29;20189;-52
2022/11/12 11:44:01;;;;;;;3.60;2.37;;;;;;;;;;4920151;29;20189;-52
2022/11/12 11:46:42;;;;;;;3.40;2.50;;;;;;;;;;4926710;29;20209;-52
2022/11/12 11:49:27;;;;;;;2.97;2.77;;;;;;;;;;4922820;29;20219;-52
2022/11/12 11:52:07;;;;;;;2.67;2.47;;;;;;;;;;4923224;29;20328;-52
2022/11/12 11:54:37;;;;;;;3.00;2.70;;;;;;;;;;4920639;29;20188;-53
2022/11/12 11:57:09;;;;;;;3.50;3.20;;;;;;;;;;4927471;29;20788;-52
2022/11/12 11:59:54;;;;;;;5.77;3.00;;;;;;;;;;4929133;29;20184;-53
2022/11/12 12:02:32;;;;;;;5.03;3.23;;;;;;;;;;4927027;29;20177;-53
2022/11/12 12:05:07;;;;;;;3.20;3.00;;;;;;;;;;4912696;28;20236;-53
2022/11/12 12:07:34;;;;;;;4.27;2.67;;;;;;;;;;4926799;29;20223;-53
2022/11/12 12:10:04;;;;;;;3.20;2.90;;;;;;;;;;4911971;29;20275;-52
2022/11/12 12:12:36;;;;;;;3.53;3.23;;;;;;;;;;4928707;29;20579;-53
2022/11/12 12:15:18;;;;;;;3.73;3.37;;;;;;;;;;4928177;29;20619;-53
2022/11/12 12:18:07;;;;;;;3.17;2.97;;;;;;;;;;4923593;29;20228;-52
2022/11/12 12:20:43;;;;;;;3.30;3.10;;;;;;;;;;4919352;29;20192;-53
2022/11/12 12:23:16;;;;;;;3.03;2.83;;;;;;;;;;4927014;29;20723;-53
2022/11/12 12:25:44;;;;;;;4.70;4.30;;;;;;;;;;4926059;29;20194;-54
2022/11/12 12:28:25;;;;;;;2.67;2.47;;;;;;;;;;4927155;29;20217;-52
2022/11/12 12:30:53;;;;;;;4.83;3.20;;;;;;;;;;4923519;29;20209;-52
2022/11/12 12:33:28;;;;;;;4.00;3.10;;;;;;;;;;4928470;29;20276;-52
2022/11/12 12:36:16;;;;;;;3.43;2.93;;;;;;;;;;4923018;29;20628;-52
2022/11/12 12:38:51;;;;;;;3.17;2.87;;;;;;;;;;4926218;29;20189;-53
2022/11/12 12:41:18;;;;;;;2.60;2.40;;;;;;;;;;4908840;29;20454;-52
2022/11/12 12:43:50;;;;;;;2.50;2.30;;;;;;;;;;4925143;29;20189;-52
2022/11/12 12:46:19;;;;;;;2.87;2.67;;;;;;;;;;4924345;29;20572;-53
2022/11/12 12:48:46;;;;;;;2.87;2.60;;;;;;;;;;4925723;29;20197;-53
2022/11/12 12:51:12;;;;;;;3.47;3.27;;;;;;;;;;4928115;29;20721;-52
2022/11/12 12:53:39;;;;;;;2.60;2.47;;;;;;;;;;4927885;29;20621;-52
2022/11/12 12:56:25;;;;;;;2.50;2.40;;;;;;;;;;4926458;29;20213;-52
2022/11/12 12:58:52;;;;;;;3.60;2.80;;;;;;;;;;4906735;29;20193;-52
2022/11/12 13:01:33;;;;;;;5.50;5.20;;;;;;;;;;4924917;29;20605;-52
2022/11/12 13:04:03;;;;;;;4.47;3.03;;;;;;;;;;4925377;28;20303;-52
2022/11/12 13:06:34;;;;;;;2.50;2.30;;;;;;;;;;4925133;29;20280;-52
2022/11/12 13:09:05;;;;;;;3.00;2.80;;;;;;;;;;4909515;29;20177;-52
2022/11/12 13:12:25;;;;;;;3.10;2.57;;;;;;;;;;4931162;29;20549;-53
2022/11/12 13:14:35;;;;;;;2.20;2.10;;;;;;;;;;4910981;29;20239;-53
2022/11/12 13:17:03;;;;;;;2.77;2.50;;;;;;;;;;4917177;29;20185;-52
2022/11/12 13:19:31;;;;;;;3.53;3.10;;;;;;;;;;4920105;29;20253;-53
2022/11/12 13:22:16;;;;;;;4.10;3.50;;;;;;;;;;4927632;29;20567;-52
2022/11/12 13:25:01;;;;;;;3.37;2.97;;;;;;;;;;4920945;29;20590;-52
2022/11/12 13:27:42;;;;;;;4.03;3.00;;;;;;;;;;4925904;29;20283;-51
2022/11/12 13:30:19;;;;;;;4.03;2.97;;;;;;;;;;4926439;29;20209;-51
2022/11/12 13:32:45;;;;;;;4.10;3.23;;;;;;;;;;4918889;29;20265;-52
2022/11/12 13:35:14;;;;;;;3.70;2.47;;;;;;;;;;4917872;29;20233;-53
2022/11/12 13:37:52;;;;;;;3.63;2.73;;;;;;;;;;4926542;29;20190;-53
2022/11/12 13:40:34;;;;;;;3.13;2.87;;;;;;;;;;4928148;29;20193;-52
2022/11/12 13:43:16;;;;;;;2.80;2.60;;;;;;;;;;4910840;29;20212;-52
2022/11/12 13:45:45;;;;;;;27.17;4.17;;;;;;;;;;4925349;29;20201;-52
2022/11/12 13:48:14;;;;;;;6.87;3.30;;;;;;;;;;4908070;29;20669;-51
2022/11/12 13:50:41;;;;;;;5.23;2.73;;;;;;;;;;4922625;29;20322;-50
2022/11/12 13:53:08;;;;;;;3.17;2.87;;;;;;;;;;4907612;29;20248;-51
2022/11/12 13:55:34;;;;;;;3.20;2.90;;;;;;;;;;4925496;29;20273;-51
2022/11/12 13:58:00;;;;;;;4.63;3.10;;;;;;;;;;4920200;29;20256;-50
2022/11/12 14:00:27;;;;;;;3.30;3.00;;;;;;;;;;4912841;29;20194;-50
2022/11/12 14:02:56;;;;;;;3.30;3.10;;;;;;;;;;4917875;29;20185;-48
2022/11/12 14:05:26;;;;;;;2.50;2.30;;;;;;;;;;4910495;28;21005;-50
2022/11/12 14:07:58;;;;;;;2.60;2.40;;;;;;;;;;4917798;29;20173;-50
2022/11/12 14:10:42;;;;;;;3.47;3.17;;;;;;;;;;4918775;29;20960;-50
2022/11/12 14:13:20;;;;;;;3.13;2.87;;;;;;;;;;4923480;29;20186;-50
2022/11/12 14:15:49;;;;;;;3.23;2.77;;;;;;;;;;4908253;29;20612;-50
2022/11/12 14:18:20;;;;;;;4.17;2.97;;;;;;;;;;4921640;29;20185;-51
2022/11/12 14:20:46;;;;;;;9.40;3.40;;;;;;;;;;4928854;29;20218;-51
2022/11/12 14:23:13;;;;;;;6.00;2.97;;;;;;;;;;4921402;29;20605;-53
2022/11/12 14:25:47;;;;;;;3.90;3.30;;;;;;;;;;4927580;29;20286;-53
2022/11/12 14:28:32;;;;;;;9.70;4.03;;;;;;;;;;4927083;29;20693;-52
2022/11/12 14:30:59;;;;;;;13.67;4.47;;;;;;;;;;4927264;29;20657;-53
2022/11/12 14:33:26;;;;;;;3.27;3.00;;;;;;;;;;4917748;29;20196;-53
2022/11/12 14:35:53;;;;;;;21.57;4.73;;;;;;;;;;4930818;29;20190;-53
2022/11/12 14:38:39;;;;;;;12.93;3.53;;;;;;;;;;4930167;29;20663;-53
2022/11/12 14:41:09;;;;;;;2.40;2.30;;;;;;;;;;4924322;29;20187;-54
2022/11/12 14:43:42;;;;;;;3.43;2.83;;;;;;;;;;4926286;29;20545;-54
2022/11/12 14:46:18;;;;;;;5.57;2.93;;;;;;;;;;4909354;29;20299;-54
2022/11/12 14:48:47;;;;;;;3.60;3.13;;;;;;;;;;4923261;29;20645;-53
2022/11/12 14:51:13;;;;;;;11.63;3.93;;;;;;;;;;4912606;29;20201;-53
2022/11/12 14:53:52;;;;;;;4.90;2.67;;;;;;;;;;4928312;29;20345;-54
2022/11/12 14:56:41;;;;;;;4.73;3.60;;;;;;;;;;4919433;29;20499;-54
2022/11/12 14:59:10;;;;;;;4.27;3.97;;;;;;;;;;4904572;29;20670;-54
2022/11/12 15:01:37;;;;;;;5.70;3.70;;;;;;;;;;4928502;29;20171;-54
2022/11/12 15:04:04;;;;;;;3.50;3.20;;;;;;;;;;4922653;28;20217;-54
2022/11/12 15:06:31;;;;;;;36.07;5.53;;;;;;;;;;4927237;29;20716;-55
2022/11/12 15:08:58;;;;;;;45.87;6.57;;;;;;;;;;4912997;29;20253;-53
2022/11/12 15:11:24;;;;;;;48.77;6.77;;;;;;;;;;4925879;29;20201;-53
2022/11/12 15:13:51;;;;;;;39.60;5.47;;;;;;;;;;4930139;29;20703;-52